Time;durP1;ratioP1;P1;durP2;ratioP2;P2;SDS_P1;SDS_P2;PMS_P1;PMS_P2;Temp;Humidity;BMP_temperature;BMP_pressure;BME280_temperature;BME280_humidity;BME280_pressure;Samples;Min_cycle;Max_cycle;Signal;HPM_P1;HPM_P2
2021/07/03 00:00:11;;;;;;;8.02;5.22;;;;;;;23.70;53.12;100870.38;4955170;28;20055;-77
2021/07/03 00:02:38;;;;;;;11.10;5.97;;;;;;;23.73;52.89;100871.59;4953836;29;20059;-75
2021/07/03 00:05:07;;;;;;;9.48;6.10;;;;;;;23.49;53.63;100867.50;4954963;29;20062;-75
2021/07/03 00:07:34;;;;;;;9.45;5.88;;;;;;;23.57;53.52;100865.53;4954504;28;20118;-74
2021/07/03 00:10:05;;;;;;;9.30;5.68;;;;;;;23.58;53.55;100862.31;4937599;29;20077;-74
2021/07/03 00:12:36;;;;;;;9.75;5.57;;;;;;;23.66;53.51;100872.34;4938431;29;20043;-77
2021/07/03 00:15:07;;;;;;;7.85;5.65;;;;;;;23.70;53.21;100870.38;4954966;29;20131;-78
2021/07/03 00:17:34;;;;;;;10.43;5.95;;;;;;;23.67;53.25;100871.16;4954775;28;20047;-76
2021/07/03 00:20:06;;;;;;;11.88;6.18;;;;;;;23.50;53.63;100865.50;4954436;28;20507;-76
2021/07/03 00:22:33;;;;;;;7.90;6.05;;;;;;;23.46;53.79;100865.47;4953445;29;20055;-75
2021/07/03 00:25:02;;;;;;;8.82;5.88;;;;;;;23.51;53.74;100873.53;4953835;28;20066;-76
2021/07/03 00:27:29;;;;;;;10.38;6.03;;;;;;;23.29;54.46;100861.41;4954696;28;20047;-75
2021/07/03 00:29:57;;;;;;;12.55;6.45;;;;;;;23.30;54.47;100867.81;4954639;29;20131;-75
2021/07/03 00:32:24;;;;;;;12.63;6.65;;;;;;;23.55;53.86;100865.09;4954207;28;20078;-75
2021/07/03 00:34:52;;;;;;;11.23;5.93;;;;;;;23.62;53.71;100860.31;4954485;29;20051;-74
2021/07/03 00:37:19;;;;;;;10.57;6.70;;;;;;;23.46;53.87;100870.28;4952909;29;20058;-74
2021/07/03 00:39:46;;;;;;;13.02;6.80;;;;;;;23.52;53.66;100863.09;4952760;29;20063;-74
2021/07/03 00:42:14;;;;;;;10.55;6.32;;;;;;;23.50;54.11;100866.31;4952292;29;20051;-75
2021/07/03 00:49:10;;;;;;;10.63;6.47;;;;;;;23.26;55.07;100858.53;4953999;28;20055;-75
2021/07/03 00:51:39;;;;;;;8.60;6.40;;;;;;;23.40;54.54;100859.44;4954369;29;20051;-76
2021/07/03 00:54:09;;;;;;;10.10;6.40;;;;;;;23.40;54.28;100859.44;4937135;29;20047;-75
2021/07/03 00:56:36;;;;;;;10.68;5.85;;;;;;;23.51;54.08;100858.66;4952906;29;20047;-77
2021/07/03 01:03:33;;;;;;;9.85;6.47;;;;;;;23.18;54.79;100848.47;4946168;29;20050;-74
2021/07/03 01:06:01;;;;;;;17.80;6.30;;;;;;;23.32;54.36;100848.56;4953981;29;20051;-77
2021/07/03 01:08:29;;;;;;;14.27;6.43;;;;;;;23.30;54.59;100848.97;4952223;29;20055;-77
2021/07/03 01:10:56;;;;;;;9.80;6.07;;;;;;;23.37;54.28;100845.38;4951860;29;20491;-74
2021/07/03 01:17:53;;;;;;;9.60;5.93;;;;;;;23.18;54.92;100838.06;4954131;29;20043;-75
2021/07/03 01:20:21;;;;;;;9.38;6.05;;;;;;;23.15;54.94;100835.22;4936893;29;20059;-75
2021/07/03 01:22:50;;;;;;;8.50;6.07;;;;;;;22.97;55.63;100829.53;4952134;29;20490;-75
2021/07/03 01:25:17;;;;;;;8.25;6.00;;;;;;;22.90;56.12;100837.09;4953779;28;20062;-74
2021/07/03 01:32:21;;;;;;;8.38;6.13;;;;;;;22.69;56.68;100831.38;4944943;28;20066;-76
2021/07/03 01:34:49;;;;;;;11.85;6.00;;;;;;;22.64;56.81;100828.94;4917881;29;20054;-78
2021/07/03 01:37:26;;;;;;;8.45;5.90;;;;;;;22.60;57.13;100826.09;4917521;29;20055;-77
2021/07/03 01:39:57;;;;;;;11.00;6.53;;;;;;;22.79;56.56;100833.41;4917677;29;20071;-77
2021/07/03 01:42:27;;;;;;;9.43;6.00;;;;;;;22.95;56.13;100825.47;4934505;29;20055;-76
2021/07/03 01:49:25;;;;;;;8.52;6.13;;;;;;;22.74;56.92;100829.00;4934420;29;20044;-77
2021/07/03 01:51:54;;;;;;;10.02;5.70;;;;;;;22.87;56.29;100826.66;4917641;29;20067;-76
2021/07/03 01:54:24;;;;;;;12.18;6.45;;;;;;;22.76;56.54;100822.97;4902387;29;20051;-78
2021/07/03 01:56:57;;;;;;;14.95;6.53;;;;;;;22.64;57.24;100828.94;4934822;29;20051;-75
2021/07/03 01:59:33;;;;;;;12.45;6.30;;;;;;;22.71;57.01;100820.56;4917380;29;20058;-75
2021/07/03 02:02:06;;;;;;;9.38;5.95;;;;;;;22.83;56.90;100825.81;4917169;29;20499;-74
2021/07/03 02:04:40;;;;;;;9.43;5.65;;;;;;;22.65;57.20;100825.72;4934503;29;20044;-75
2021/07/03 02:07:11;;;;;;;11.27;6.18;;;;;;;22.49;57.38;100830.81;4902251;29;20063;-74
2021/07/03 02:09:39;;;;;;;9.77;5.93;;;;;;;22.70;57.38;100819.75;4916902;29;20055;-75
2021/07/03 02:12:07;;;;;;;11.27;6.05;;;;;;;22.66;57.40;100826.53;4933970;29;20059;-77
2021/07/03 02:14:56;;;;;;;;;;;;;;;22.52;57.57;100824.44;4937552;29;20044;-75
2021/07/03 02:17:29;;;;;;;8.43;5.80;;;;;;;22.55;57.45;100826.47;4921721;29;19922;-77
2021/07/03 02:20:01;;;;;;;9.95;6.10;;;;;;;22.62;57.36;100825.72;4938214;29;20419;-76
2021/07/03 02:22:43;;;;;;;11.75;5.93;;;;;;;22.58;57.66;100825.69;4920771;29;20399;-75
2021/07/03 02:25:15;;;;;;;9.95;6.00;;;;;;;22.40;58.24;100823.94;4920621;29;20431;-76
2021/07/03 02:27:46;;;;;;;7.82;5.90;;;;;;;22.54;57.87;100822.06;4905327;29;20074;-76
2021/07/03 02:30:20;;;;;;;7.53;5.78;;;;;;;22.54;57.73;100818.41;4921051;29;20048;-75
2021/07/03 02:32:50;;;;;;;;;;;;;;;22.48;58.20;100825.59;4925927;29;20066;-75
2021/07/03 02:35:18;;;;;;;11.80;6.15;;;;;;;22.47;57.96;100821.19;4955702;29;19922;-76
2021/07/03 02:37:52;;;;;;;9.95;6.20;;;;;;;22.46;58.49;100827.97;4939589;29;20050;-73
2021/07/03 02:40:23;;;;;;;10.55;5.53;;;;;;;22.57;58.02;100821.28;4940093;29;20059;-74
2021/07/03 02:42:52;;;;;;;11.07;6.30;;;;;;;22.52;58.00;100818.00;4957103;28;20051;-76
2021/07/03 02:45:20;;;;;;;9.65;5.90;;;;;;;22.46;58.53;100822.34;4955204;29;20106;-75
2021/07/03 02:47:47;;;;;;;14.60;6.60;;;;;;;22.20;59.48;100818.59;4956361;28;20483;-75
2021/07/03 02:50:19;;;;;;;9.90;6.18;;;;;;;22.28;59.02;100822.25;4954919;29;20059;-76
2021/07/03 02:52:50;;;;;;;10.10;6.38;;;;;;;22.22;59.45;100821.81;4955553;29;20499;-74
2021/07/03 02:55:18;;;;;;;9.40;6.40;;;;;;;22.34;59.09;100807.47;4956664;29;20389;-75
2021/07/03 02:57:46;;;;;;;7.88;6.25;;;;;;;22.12;59.55;100814.09;4938927;29;20055;-76
2021/07/03 03:00:16;;;;;;;9.63;6.40;;;;;;;22.29;59.35;100815.44;4955018;29;20066;-74
2021/07/03 03:02:47;;;;;;;13.75;6.80;;;;;;;22.22;59.73;100809.78;4954784;29;20407;-75
2021/07/03 03:05:21;;;;;;;10.73;6.35;;;;;;;22.25;59.63;100808.97;4955296;29;20051;-74
2021/07/03 03:07:49;;;;;;;10.23;6.63;;;;;;;22.18;59.79;100800.50;4955810;28;20066;-74
2021/07/03 03:10:19;;;;;;;8.88;6.10;;;;;;;22.32;59.67;100800.63;4956648;28;20411;-74
2021/07/03 03:12:49;;;;;;;9.73;6.80;;;;;;;22.04;60.55;100811.63;4955356;29;20055;-75
2021/07/03 03:15:22;;;;;;;10.65;6.50;;;;;;;22.18;60.16;100803.31;4939632;29;20051;-76
2021/07/03 03:17:54;;;;;;;12.45;6.82;;;;;;;21.99;60.76;100803.56;4954666;29;20066;-76
2021/07/03 03:20:22;;;;;;;10.90;7.10;;;;;;;21.88;61.31;100816.72;4954295;29;20067;-75
2021/07/03 03:22:50;;;;;;;12.98;6.88;;;;;;;21.81;61.79;100811.81;4954369;29;20051;-75
2021/07/03 03:25:18;;;;;;;9.98;7.20;;;;;;;21.82;61.63;100807.03;4954279;28;20051;-75
2021/07/03 03:27:47;;;;;;;11.55;6.47;;;;;;;22.08;60.88;100799.25;4954937;29;20055;-76
2021/07/03 03:30:15;;;;;;;9.45;6.93;;;;;;;22.01;61.26;100799.19;4954199;29;20047;-76
2021/07/03 03:32:46;;;;;;;11.20;6.70;;;;;;;22.12;60.91;100805.69;4954241;29;20427;-77
2021/07/03 03:35:15;;;;;;;9.18;6.55;;;;;;;22.24;60.34;100798.97;4954215;29;20055;-77
2021/07/03 03:37:45;;;;;;;;;;;;;;;22.05;61.43;100802.84;4956216;28;20055;-75
2021/07/03 03:40:17;;;;;;;11.23;6.68;;;;;;;21.92;61.59;100814.72;4938031;29;19923;-79
2021/07/03 03:42:45;;;;;;;8.35;6.47;;;;;;;21.91;61.84;100815.94;4954584;29;20051;-75
2021/07/03 03:45:13;;;;;;;10.63;6.60;;;;;;;21.88;62.28;100813.91;4954259;29;20536;-76
2021/07/03 03:47:40;;;;;;;10.27;6.60;;;;;;;21.74;62.76;100813.75;4954262;29;20062;-76
2021/07/03 03:50:09;;;;;;;10.02;6.60;;;;;;;22.05;61.91;100805.66;4955638;28;20059;-78
2021/07/03 03:52:37;;;;;;;14.30;6.68;;;;;;;21.78;62.71;100809.81;4953813;29;20073;-76
2021/07/03 03:55:07;;;;;;;11.27;6.82;;;;;;;22.12;61.78;100821.72;4922699;29;20396;-75
2021/07/03 03:57:37;;;;;;;11.45;6.07;;;;;;;22.21;61.19;100820.19;4953774;29;20051;-75
2021/07/03 04:00:14;;;;;;;9.70;6.93;;;;;;;22.09;61.73;100817.69;4953801;29;20066;-77
2021/07/03 04:02:41;;;;;;;10.38;6.18;;;;;;;22.08;61.75;100827.31;4953993;29;20062;-75
2021/07/03 04:05:15;;;;;;;8.73;6.65;;;;;;;22.04;62.02;100829.28;4954136;29;20494;-75
2021/07/03 04:07:45;;;;;;;10.38;6.60;;;;;;;22.18;61.96;100835.00;4937376;29;20070;-74
2021/07/03 04:10:14;;;;;;;8.80;6.47;;;;;;;22.04;62.17;100832.06;4953260;29;20491;-75
2021/07/03 04:12:41;;;;;;;9.50;6.40;;;;;;;22.02;62.63;100828.84;4953875;29;20047;-75
2021/07/03 04:15:11;;;;;;;17.45;7.32;;;;;;;22.10;62.17;100830.53;4954922;28;20058;-74
2021/07/03 04:17:39;;;;;;;9.93;6.50;;;;;;;22.06;62.54;100826.88;4954421;28;20526;-73
2021/07/03 04:20:09;;;;;;;9.35;6.80;;;;;;;22.10;62.32;100835.34;4954637;28;20061;-74
2021/07/03 04:22:37;;;;;;;8.97;6.90;;;;;;;21.97;62.65;100832.00;4954939;28;20070;-73
2021/07/03 04:25:08;;;;;;;9.15;6.38;;;;;;;22.17;62.18;100829.78;4954815;28;20047;-75
2021/07/03 04:27:35;;;;;;;11.27;7.10;;;;;;;22.25;61.76;100829.44;4953385;29;20054;-73
2021/07/03 04:30:05;;;;;;;9.95;6.47;;;;;;;22.03;62.77;100830.47;4952653;29;20403;-74
2021/07/03 04:32:34;;;;;;;8.57;7.10;;;;;;;22.03;62.98;100830.47;4935431;29;20051;-75
2021/07/03 04:35:04;;;;;;;12.00;7.15;;;;;;;22.07;63.01;100836.91;4918227;29;20054;-73
2021/07/03 04:37:31;;;;;;;10.35;7.05;;;;;;;21.98;63.07;100835.63;4901890;29;20055;-74
2021/07/03 04:39:59;;;;;;;10.82;6.70;;;;;;;22.17;62.83;100835.38;4935189;29;20055;-75
2021/07/03 04:42:26;;;;;;;10.40;6.53;;;;;;;22.25;62.72;100839.84;4918060;29;20047;-76
2021/07/03 04:44:53;;;;;;;9.30;6.38;;;;;;;22.11;62.92;100843.34;4934485;29;20078;-75
2021/07/03 04:47:21;;;;;;;8.63;7.15;;;;;;;21.97;63.70;100845.22;4934873;29;20059;-75
2021/07/03 04:49:48;;;;;;;9.98;7.10;;;;;;;21.75;64.81;100837.78;4934356;29;20056;-74
2021/07/03 04:52:16;;;;;;;11.57;6.82;;;;;;;21.70;65.10;100844.56;4934062;29;20488;-75
2021/07/03 04:54:43;;;;;;;10.88;6.63;;;;;;;21.76;65.12;100837.38;4917461;29;20482;-74
2021/07/03 04:57:13;;;;;;;8.45;6.30;;;;;;;21.91;64.59;100838.38;4918588;29;20063;-75
2021/07/03 04:59:42;;;;;;;9.77;6.82;;;;;;;21.89;64.42;100835.16;4934468;29;20055;-75
2021/07/03 05:06:34;;;;;;;9.52;6.97;;;;;;;22.04;64.04;100831.25;4934657;29;20051;-74
2021/07/03 05:09:02;;;;;;;8.77;6.80;;;;;;;22.05;64.37;100830.91;4934624;29;20060;-75
2021/07/03 05:11:29;;;;;;;11.88;6.57;;;;;;;22.17;63.70;100839.00;4934447;29;20052;-75
2021/07/03 05:14:00;;;;;;;12.20;6.78;;;;;;;22.18;63.71;100825.78;4935179;29;20391;-75
2021/07/03 05:16:28;;;;;;;8.50;6.28;;;;;;;22.30;63.59;100819.84;4934520;29;20056;-75
2021/07/03 05:18:55;;;;;;;9.13;6.70;;;;;;;22.16;63.72;100822.53;4917506;29;20513;-75
2021/07/03 05:21:22;;;;;;;10.90;6.50;;;;;;;22.17;63.51;100827.78;4934149;29;20055;-76
2021/07/03 05:23:50;;;;;;;9.73;6.30;;;;;;;22.23;63.31;100816.97;4934481;29;20522;-76
2021/07/03 05:26:18;;;;;;;13.27;6.32;;;;;;;22.33;62.96;100814.25;4934599;29;20055;-76
2021/07/03 05:28:48;;;;;;;9.73;6.80;;;;;;;22.17;63.50;100816.56;4918232;29;20133;-74
2021/07/03 05:31:15;;;;;;;10.90;7.18;;;;;;;22.39;62.89;100817.50;4917577;29;20052;-79
2021/07/03 05:33:43;;;;;;;10.00;6.70;;;;;;;22.44;62.75;100830.38;4944688;29;20060;-76
2021/07/03 05:36:10;;;;;;;12.65;7.03;;;;;;;22.44;62.59;100830.38;4953110;29;20505;-74
2021/07/03 05:38:42;;;;;;;11.40;6.82;;;;;;;22.37;62.52;100822.69;4936839;29;20047;-76
2021/07/03 05:41:09;;;;;;;11.68;7.50;;;;;;;22.27;62.65;100823.44;4936468;29;20262;-77
2021/07/03 05:43:38;;;;;;;10.35;7.15;;;;;;;22.44;63.02;100830.38;4936180;29;20507;-76
2021/07/03 05:46:06;;;;;;;11.35;6.72;;;;;;;22.37;62.69;100821.91;4937076;29;20059;-78
2021/07/03 05:48:39;;;;;;;9.32;6.97;;;;;;;22.18;63.16;100822.97;4959079;28;20062;-75
2021/07/03 05:51:07;;;;;;;9.57;6.72;;;;;;;22.19;63.57;100835.81;4960147;29;20054;-76
2021/07/03 05:53:35;;;;;;;10.50;7.53;;;;;;;22.21;63.51;100839.03;4959829;29;20047;-75
2021/07/03 05:56:03;;;;;;;11.00;7.25;;;;;;;22.10;63.70;100836.16;4943407;29;20062;-76
2021/07/03 05:58:30;;;;;;;10.43;6.80;;;;;;;22.06;64.28;100837.28;4942167;29;20066;-75
2021/07/03 06:00:57;;;;;;;9.80;6.95;;;;;;;22.27;63.82;100841.09;4942784;29;20511;-76
2021/07/03 06:03:26;;;;;;;10.27;7.43;;;;;;;22.12;64.08;100830.94;4961826;28;20058;-74
2021/07/03 06:05:54;;;;;;;10.57;6.70;;;;;;;22.44;63.22;100831.19;4943102;29;20429;-75
2021/07/03 06:08:21;;;;;;;11.55;7.38;;;;;;;22.55;62.91;100836.88;4959632;29;20510;-74
2021/07/03 06:10:49;;;;;;;14.38;7.22;;;;;;;22.68;61.61;100838.19;4941568;29;20070;-76
2021/07/03 06:13:17;;;;;;;9.27;6.05;;;;;;;22.74;61.62;100839.41;4959535;29;20391;-75
2021/07/03 06:15:44;;;;;;;9.05;6.70;;;;;;;22.57;62.14;100838.13;4959769;28;20054;-75
2021/07/03 06:18:12;;;;;;;11.75;7.13;;;;;;;22.58;62.31;100842.53;4959440;29;20047;-76
2021/07/03 06:20:40;;;;;;;10.30;7.38;;;;;;;22.59;62.33;100843.34;4958877;29;20047;-76
2021/07/03 06:23:07;;;;;;;10.40;7.00;;;;;;;22.64;61.77;100846.59;4959065;29;20051;-74
2021/07/03 06:25:34;;;;;;;10.95;6.82;;;;;;;22.58;61.58;100842.53;4942665;29;20398;-75
2021/07/03 06:28:02;;;;;;;10.82;6.78;;;;;;;22.42;61.99;100832.78;4958930;29;20077;-74
2021/07/03 06:30:33;;;;;;;12.73;6.90;;;;;;;22.56;62.19;100830.09;4959477;28;20522;-76
2021/07/03 06:37:33;;;;;;;11.55;6.95;;;;;;;22.60;61.96;100851.38;4940175;29;20040;-75
2021/07/03 06:40:00;;;;;;;10.80;7.00;;;;;;;22.55;62.23;100845.31;4940551;29;20067;-77
2021/07/03 06:42:28;;;;;;;12.05;6.68;;;;;;;22.60;61.80;100842.94;4923412;29;20062;-75
2021/07/03 06:44:55;;;;;;;13.40;6.72;;;;;;;22.80;61.47;100844.28;4940407;29;20415;-75
2021/07/03 06:52:03;;;;;;;11.20;6.78;;;;;;;22.91;60.20;100858.41;4940407;29;20039;-75
2021/07/03 06:54:30;;;;;;;10.27;6.80;;;;;;;22.91;60.07;100844.34;4940178;29;20063;-76
2021/07/03 06:56:58;;;;;;;11.88;6.97;;;;;;;22.91;60.35;100847.16;4940389;29;20522;-75
2021/07/03 06:59:28;;;;;;;10.18;6.00;;;;;;;22.99;60.15;100858.03;4937005;29;20153;-78
2021/07/03 07:02:41;;;;;;;9.52;6.30;;;;;;;22.66;59.86;100868.66;4937265;29;20047;-78
2021/07/03 07:05:08;;;;;;;8.35;5.80;;;;;;;22.41;60.57;100865.66;4937304;29;20054;-75
2021/07/03 07:07:36;;;;;;;8.77;5.78;;;;;;;22.53;60.46;100851.28;4937524;29;20410;-74
2021/07/03 07:10:04;;;;;;;9.55;6.03;;;;;;;22.62;60.61;100860.22;4937000;29;20055;-75
2021/07/03 07:12:31;;;;;;;10.07;5.75;;;;;;;22.69;60.34;100860.25;4920181;29;20388;-76
2021/07/03 07:14:59;;;;;;;10.60;5.80;;;;;;;22.83;60.03;100867.97;4935493;29;20074;-78
2021/07/03 07:17:26;;;;;;;11.95;6.30;;;;;;;23.01;59.08;100874.50;4935744;29;20050;-74
2021/07/03 07:19:54;;;;;;;8.73;5.63;;;;;;;22.91;59.63;100881.66;4936722;29;20415;-75
2021/07/03 07:22:21;;;;;;;8.98;5.63;;;;;;;23.09;58.85;100878.94;4936796;29;20056;-75
2021/07/03 07:24:49;;;;;;;9.68;6.10;;;;;;;23.04;58.57;100888.56;4919910;29;20052;-76
2021/07/03 07:27:16;;;;;;;9.85;6.50;;;;;;;22.97;58.69;100888.53;4936706;29;20048;-74
2021/07/03 07:29:43;;;;;;;9.60;6.00;;;;;;;22.83;59.78;100890.44;4936622;29;20468;-74
2021/07/03 07:32:14;;;;;;;11.00;5.68;;;;;;;22.98;59.23;100897.78;4920408;29;20247;-75
2021/07/03 07:34:43;;;;;;;8.90;5.63;;;;;;;22.96;59.49;100898.13;4936462;29;20052;-76
2021/07/03 07:37:10;;;;;;;9.70;6.28;;;;;;;22.87;59.22;100892.09;4948634;29;20066;-75
2021/07/03 07:39:38;;;;;;;8.27;6.13;;;;;;;22.82;59.16;100900.84;4955274;28;20044;-77
2021/07/03 07:42:05;;;;;;;9.98;5.78;;;;;;;23.00;59.32;100889.72;4953787;29;20426;-76
2021/07/03 07:44:33;;;;;;;10.85;5.78;;;;;;;22.56;59.09;100901.06;4938108;29;20058;-76
2021/07/03 07:47:02;;;;;;;10.55;6.30;;;;;;;22.62;59.80;100893.09;4954334;29;20059;-77
2021/07/03 07:49:29;;;;;;;8.57;6.13;;;;;;;22.83;59.27;100907.28;4955116;28;20055;-75
2021/07/03 07:52:01;;;;;;;10.55;6.30;;;;;;;22.87;58.25;100900.50;4954002;29;20055;-78
2021/07/03 07:54:29;;;;;;;9.00;6.35;;;;;;;22.63;59.01;100903.16;4955694;29;20054;-76
2021/07/03 07:56:59;;;;;;;10.45;5.72;;;;;;;22.43;60.11;100904.56;4955320;29;20542;-77
2021/07/03 07:59:26;;;;;;;;;;;;;;;22.60;59.87;100901.91;4955839;28;20055;-78
2021/07/03 08:01:54;;;;;;;10.93;6.28;;;;;;;22.91;58.74;100901.31;4953787;29;19942;-74
2021/07/03 08:04:21;;;;;;;9.23;5.60;;;;;;;23.19;57.68;100893.03;4954733;28;20051;-75
2021/07/03 08:06:49;;;;;;;13.55;6.13;;;;;;;22.59;59.68;100893.88;4953740;29;20040;-77
2021/07/03 08:09:16;;;;;;;12.18;6.25;;;;;;;22.71;59.32;100899.19;4955033;28;20047;-77
2021/07/03 08:11:44;;;;;;;9.52;5.90;;;;;;;22.96;58.97;100898.13;4953494;28;20082;-77
2021/07/03 08:14:11;;;;;;;12.63;5.75;;;;;;;23.03;58.69;100891.78;4955457;29;20055;-77
2021/07/03 08:16:38;;;;;;;8.68;5.68;;;;;;;23.07;58.14;100893.38;4955582;28;20051;-78
2021/07/03 08:19:06;;;;;;;10.93;6.05;;;;;;;23.12;57.70;100903.44;4955247;29;20384;-78
2021/07/03 08:21:36;;;;;;;8.60;5.90;;;;;;;22.80;59.09;100908.91;4954884;28;20051;-77
2021/07/03 08:24:04;;;;;;;10.82;5.60;;;;;;;23.02;59.71;100895.75;4922462;29;20051;-79
2021/07/03 08:26:31;;;;;;;12.40;6.38;;;;;;;22.52;60.52;100896.59;4953500;29;20058;-80
2021/07/03 08:29:00;;;;;;;9.95;5.55;;;;;;;22.45;61.43;100893.75;4955359;29;20051;-79
2021/07/03 08:31:27;;;;;;;11.02;5.50;;;;;;;22.67;61.10;100893.53;4955543;28;20226;-78
2021/07/03 08:38:35;;;;;;;9.95;7.03;;;;;;;22.10;62.83;100905.47;4934946;29;20058;-75
2021/07/03 08:41:02;;;;;;;9.55;5.82;;;;;;;22.05;62.92;100901.03;4935383;29;20058;-75
2021/07/03 08:43:30;;;;;;;8.75;6.25;;;;;;;21.56;63.62;100903.28;4935528;29;20054;-75
2021/07/03 08:46:02;;;;;;;11.20;6.18;;;;;;;21.82;63.16;100910.78;4927216;29;20514;-75
2021/07/03 08:53:10;;;;;;;15.75;6.68;;;;;;;21.45;64.39;100921.94;4935104;29;20059;-76
2021/07/03 08:55:38;;;;;;;16.55;7.32;;;;;;;21.41;66.18;100920.31;4934991;29;20051;-76
2021/07/03 08:58:08;;;;;;;11.77;6.82;;;;;;;21.42;67.05;100924.72;4934765;29;20066;-75
2021/07/03 09:00:41;;;;;;;10.45;6.75;;;;;;;21.26;68.08;100930.50;4918475;29;20147;-74
2021/07/03 09:03:17;;;;;;;10.98;7.05;;;;;;;21.25;68.31;100921.28;4918458;29;20055;-77
2021/07/03 09:05:50;;;;;;;10.38;7.05;;;;;;;21.47;68.63;100910.34;4934782;29;20048;-74
2021/07/03 09:08:23;;;;;;;13.75;6.82;;;;;;;21.72;67.54;100920.69;4934901;29;20487;-75
2021/07/03 09:11:06;;;;;;;11.85;7.38;;;;;;;21.89;67.14;100920.09;4934664;29;20445;-76
2021/07/03 09:13:35;;;;;;;11.00;7.20;;;;;;;21.58;67.56;100920.53;4934366;29;20044;-75
2021/07/03 09:16:04;;;;;;;12.52;7.07;;;;;;;21.24;67.33;100933.69;4934027;29;20051;-76
2021/07/03 09:18:32;;;;;;;11.40;6.97;;;;;;;21.26;68.91;100930.50;4901899;29;20043;-74
2021/07/03 09:21:09;;;;;;;12.43;7.50;;;;;;;21.25;68.64;100934.53;4918408;29;20059;-75
2021/07/03 09:23:39;;;;;;;14.52;7.40;;;;;;;21.23;67.98;100934.88;4917791;29;20062;-75
2021/07/03 09:26:11;;;;;;;13.30;7.32;;;;;;;21.00;67.88;100936.16;4917931;29;20058;-73
2021/07/03 09:28:44;;;;;;;10.82;7.45;;;;;;;21.07;68.51;100947.47;4934092;29;20052;-75
2021/07/03 09:31:14;;;;;;;12.32;7.78;;;;;;;21.37;67.68;100934.28;4916933;29;20052;-74
2021/07/03 09:33:47;;;;;;;12.18;7.47;;;;;;;21.32;68.46;100940.22;4901191;29;20059;-74
2021/07/03 09:36:27;;;;;;;11.63;7.57;;;;;;;21.69;67.31;100943.09;4932334;29;20392;-74
2021/07/03 09:38:56;;;;;;;11.83;7.00;;;;;;;21.92;66.09;100944.56;4933940;29;20051;-74
2021/07/03 09:41:23;;;;;;;11.20;7.05;;;;;;;21.99;65.80;100938.22;4917230;29;20051;-76
2021/07/03 09:43:50;;;;;;;10.73;6.80;;;;;;;22.19;65.21;100948.84;4917906;29;20054;-74
2021/07/03 09:46:27;;;;;;;11.55;7.07;;;;;;;22.24;65.08;100950.50;4933977;29;20492;-74
2021/07/03 09:49:20;;;;;;;12.00;7.20;;;;;;;22.14;64.05;100949.19;4917518;29;20062;-75
2021/07/03 09:51:48;;;;;;;11.65;6.88;;;;;;;22.06;64.56;100953.13;4917188;29;20461;-75
2021/07/03 09:54:17;;;;;;;12.20;8.15;;;;;;;21.93;65.35;100954.59;4934406;29;20052;-76
2021/07/03 09:56:45;;;;;;;9.98;7.00;;;;;;;21.99;65.28;100957.84;4934714;29;20078;-75
2021/07/03 09:59:12;;;;;;;14.48;7.28;;;;;;;21.89;66.20;100955.75;4931680;29;20376;-75
2021/07/03 10:01:43;;;;;;;11.13;7.90;;;;;;;22.05;66.15;100945.09;4934371;29;20399;-77
2021/07/03 10:04:14;;;;;;;11.88;8.88;;;;;;;22.37;65.15;100946.22;4918264;29;20228;-77
2021/07/03 10:06:57;;;;;;;11.95;7.97;;;;;;;22.46;63.09;100941.06;4902072;29;20051;-77
2021/07/03 10:09:31;;;;;;;10.27;7.43;;;;;;;22.68;62.76;100944.91;4901204;29;20059;-78
2021/07/03 10:12:07;;;;;;;10.07;6.88;;;;;;;23.01;61.98;100945.53;4934082;29;20056;-76
2021/07/03 10:14:40;;;;;;;12.85;6.10;;;;;;;22.83;61.88;100932.56;4917014;29;20048;-76
2021/07/03 10:17:07;;;;;;;11.00;6.30;;;;;;;22.91;60.43;100928.63;4901717;29;20048;-76
2021/07/03 10:19:37;;;;;;;8.75;5.90;;;;;;;23.18;59.79;100928.00;4917159;29;20407;-76
2021/07/03 10:22:16;;;;;;;8.60;5.45;;;;;;;23.14;58.50;100926.34;4916964;29;20600;-77
2021/07/03 10:24:48;;;;;;;9.57;5.30;;;;;;;23.21;58.40;100927.19;4934030;29;20522;-73
2021/07/03 10:27:20;;;;;;;8.63;4.95;;;;;;;23.65;57.40;100921.38;4933785;29;20495;-75
2021/07/03 10:29:48;;;;;;;8.25;5.18;;;;;;;23.47;58.09;100928.16;4933669;29;20060;-76
2021/07/03 10:32:23;;;;;;;8.90;5.15;;;;;;;23.61;56.61;100931.81;4916809;29;20063;-76
2021/07/03 10:34:51;;;;;;;6.78;4.40;;;;;;;23.57;56.43;100936.63;4918637;29;20051;-75
2021/07/03 10:37:38;;;;;;;11.05;4.47;;;;;;;23.67;55.77;100929.44;4947793;29;20059;-74
2021/07/03 10:40:27;;;;;;;8.32;4.63;;;;;;;23.91;54.43;100931.50;4878963;29;20068;-75
2021/07/03 10:43:09;;;;;;;11.20;4.20;;;;;;;23.56;53.54;100934.19;4862910;29;20061;-75
2021/07/03 10:45:50;;;;;;;9.27;4.22;;;;;;;23.77;54.23;100937.91;4878790;29;20072;-76
2021/07/03 10:52:39;;;;;;;7.97;4.45;;;;;;;24.08;52.17;100927.94;4877906;29;20098;-75
2021/07/03 10:55:09;;;;;;;6.50;4.22;;;;;;;24.35;49.58;100938.47;4862043;29;20057;-75
2021/07/03 10:57:43;;;;;;;9.27;4.10;;;;;;;24.56;49.01;100931.22;4878702;29;20079;-77
2021/07/03 11:00:12;;;;;;;6.10;3.67;;;;;;;24.44;49.40;100923.97;4878135;29;20501;-74
2021/07/03 11:02:41;;;;;;;6.68;3.88;;;;;;;24.25;48.79;100922.34;4878427;29;20060;-75
2021/07/03 11:05:14;;;;;;;5.63;3.78;;;;;;;24.28;49.63;100924.38;4877973;29;20053;-75
2021/07/03 11:07:42;;;;;;;6.70;3.53;;;;;;;24.16;46.94;100923.94;4877788;29;20437;-74
2021/07/03 11:10:25;;;;;;;6.25;3.50;;;;;;;23.91;48.86;100923.88;4862847;29;20064;-74
2021/07/03 11:12:54;;;;;;;7.63;4.00;;;;;;;24.09;50.03;100921.94;4861676;29;20057;-73
2021/07/03 11:15:29;;;;;;;6.43;3.87;;;;;;;24.34;48.82;100910.69;4862740;29;20531;-75
2021/07/03 11:17:59;;;;;;;6.22;4.05;;;;;;;24.52;47.45;100912.31;4934931;29;20306;-74
2021/07/03 11:20:28;;;;;;;6.45;4.13;;;;;;;24.52;47.20;100909.50;4956042;29;20395;-73
2021/07/03 11:22:57;;;;;;;;;;;;;;;24.70;46.77;100912.31;4955510;29;20052;-75
2021/07/03 11:25:28;;;;;;;6.78;3.92;;;;;;;24.72;47.62;100911.91;4956207;29;19922;-74
2021/07/03 11:28:19;;;;;;;8.57;3.55;;;;;;;24.86;45.36;100911.91;4955703;29;20487;-76
2021/07/03 11:30:58;;;;;;;6.05;3.28;;;;;;;24.76;46.24;100899.41;4939684;29;20051;-74
2021/07/03 11:37:59;;;;;;;6.28;3.08;;;;;;;24.77;44.64;100897.41;4956432;29;20070;-76
2021/07/03 11:41:39;;;;;;;4.20;2.80;;;;;;;25.49;40.87;100889.94;4943395;29;20051;-76
2021/07/03 11:44:08;;;;;;;4.80;3.03;;;;;;;24.99;43.30;100890.50;4922871;29;20410;-76
2021/07/03 11:46:35;;;;;;;7.20;4.18;;;;;;;24.89;43.47;100888.53;4954810;28;20059;-77
2021/07/03 11:53:41;;;;;;;7.78;3.92;;;;;;;25.29;40.30;100891.63;4937275;29;20490;-74
2021/07/03 11:56:10;;;;;;;7.72;2.35;;;;;;;25.51;38.94;100892.34;4955369;29;20051;-74
2021/07/03 11:58:38;;;;;;;4.88;2.25;;;;;;;25.59;39.63;100889.09;4955839;29;20348;-75
2021/07/03 12:01:07;;;;;;;5.57;2.40;;;;;;;25.45;40.69;100894.81;4954379;29;20051;-73
2021/07/03 12:03:37;;;;;;;3.40;2.10;;;;;;;25.74;39.64;100881.34;4954815;29;20047;-74
2021/07/03 12:10:38;;;;;;;4.95;2.40;;;;;;;25.77;39.23;100888.22;4954652;29;20047;-77
2021/07/03 12:13:20;;;;;;;5.90;2.60;;;;;;;25.81;39.56;100883.31;4921971;29;20051;-74
2021/07/03 12:16:11;;;;;;;4.03;2.03;;;;;;;25.98;36.51;100871.13;4938015;29;20051;-76
2021/07/03 12:23:02;;;;;;;4.53;2.47;;;;;;;25.38;37.52;100877.13;4954288;29;20044;-74
2021/07/03 12:25:32;;;;;;;3.83;2.13;;;;;;;25.28;38.88;100880.78;4954468;29;20074;-74
2021/07/03 12:28:02;;;;;;;5.65;2.67;;;;;;;25.45;42.17;100879.91;4954718;29;20059;-75
2021/07/03 12:30:30;;;;;;;4.68;2.90;;;;;;;25.65;39.70;100878.19;4953678;29;20059;-76
2021/07/03 12:33:09;;;;;;;8.88;2.30;;;;;;;25.66;39.44;100864.88;4954814;29;20132;-74
2021/07/03 12:40:16;;;;;;;6.97;3.25;;;;;;;25.77;41.65;100871.28;4935399;29;20048;-73
2021/07/03 12:42:46;;;;;;;7.55;3.55;;;;;;;25.87;41.63;100862.75;4918558;29;20055;-75
2021/07/03 12:45:13;;;;;;;;;;;;;;;25.97;41.46;100864.69;4935702;29;20054;-75
2021/07/03 12:47:46;;;;;;;5.28;3.00;;;;;;;26.07;41.82;100869.47;4917766;29;19923;-74